New York Mortgage Trust Inc (NYMT) Latest Bloomsberg Price


Mffais Ranking #1321 Overall / #17 Industry
Industry: Mortgage Finance

Number of Companies: 79 (Ranking #1910 Overall/#28 Industry)
Inflow: $ 4,169 (K) (Ranking #2260 Overall/#33 Industry)
Outflow: $ -4,744 (K)
Mffais Flow: $ -574 (K) (Ranking #1321 Overall/#17 Industry)


Receive a FREE weekly executive review of stocks moving into the top 10, taking the top industy spot or moving up within their industry. Sent directly to your Inbox every Saturday. Sign up today and get last week's review immediately sent to you.

We value and respect your privacy. Please read our Terms and Conditions which states our firm commitment to your privacy. Your email address will not be shared with a third party, nor will it be sold or used for purposes other than subscription for the weekly review.

Owner CPOR Shares Action Qty Chg Invested (K) Total Current Value (K)
Sterling Capital Management Llc 2016-09-30 107,180 New Holding 107,180 $ 690 $ 690
Spot Trading L L C 2016-09-30 166,696 Added More 101,200 $ 651 $ 1,073
Global X Management Co Llc 2016-09-30 1,479,194 Added More 66,257 $ 426 $ 9,526
Parametric Portfolio Associates Llc 2016-09-30 119,260 Added More 48,232 $ 310 $ 768
Cetera Advisor Networks Llc 2016-09-30 77,350 Added More 38,009 $ 244 $ 498
Gsa Capital Partners Llp 2016-09-30 34,300 New Holding 34,300 $ 220 $ 220
Northern Trust Corp 2016-09-30 1,943,193 Added More 31,760 $ 204 $ 12,514
Tfs Capital Llc 2016-09-30 29,675 New Holding 29,675 $ 191 $ 191
Indexiq Advisors Llc 2016-09-30 108,963 Added More 21,429 $ 138 $ 701
Ironsides Asset Advisors Llc 2016-09-30 30,790 Added More 19,600 $ 126 $ 198
Raymond James Associates 2016-09-30 31,474 Added More 19,041 $ 122 $ 202
Quantbot Technologies Lp 2016-09-30 14,000 Added More 13,200 $ 85 $ 90
Weiss Asset Management Lp 2016-09-30 12,074 New Holding 12,074 $ 77 $ 77
Sg Americas Securities Llc 2016-09-30 11,852 New Holding 11,852 $ 76 $ 76
Van Eck Associates Corp 2016-09-30 424,669 Added More 11,494 $ 74 $ 2,734
Sii Investments Inc Wi 2016-09-30 11,471 New Holding 11,471 $ 73 $ 73
Blackrock Investment Management Llc 2016-09-30 481,471 Added More 9,654 $ 62 $ 3,100
Creative Planning 2016-09-30 165,947 Added More 8,997 $ 57 $ 1,068
Msi Financial Services Inc 2016-09-30 23,450 Added More 8,317 $ 53 $ 151
Focused Wealth Management Inc 2016-09-30 21,251 Added More 8,271 $ 53 $ 136
Group One Trading L P 2016-09-30 6,216 Added More 6,129 $ 39 $ 40
Teachers Advisors Inc 2016-09-30 178,070 Added More 4,976 $ 32 $ 1,146
Qs Investors Llc 2016-09-30 13,024 Added More 4,300 $ 27 $ 83
Us Bancorp De 2016-09-30 6,163 Added More 3,400 $ 21 $ 39
Aperio Group Llc 2016-09-30 62,331 Added More 2,673 $ 17 $ 401
California State Teachers Retirement System 2016-09-30 232,964 Added More 2,200 $ 14 $ 1,500
Wellington Shields Co Llc 2016-09-30 24,000 Added More 2,000 $ 12 $ 154
Ifp Advisors Inc 2016-09-30 2,000 Added More 1,700 $ 10 $ 12
Rhumbline Advisers 2016-09-30 131,064 Added More 1,160 $ 7 $ 844
Cambridge Investment Research Advisors Inc 2016-09-30 42,202 Added More 1,155 $ 7 $ 271
Blackrock Inc 2016-09-30 37,935 Added More 1,082 $ 6 $ 244
Ladenburg Thalmann Financial Services Inc 2016-09-30 116,049 Added More 1,000 $ 6 $ 747
Salem Investment Counselors Inc 2016-09-30 1,000 New Holding 1,000 $ 6 $ 6
Raymond James Financial Services Advisors Inc 2016-09-30 15,255 Added More 950 $ 6 $ 98
Investors Capital Advisory Services 2016-06-30 57,425 Added More 600 $ 3 $ 350
Sigma Planning Corp 2016-09-30 15,844 Added More 364 $ 2 $ 102
Penserra Capital Management Llc 2016-09-30 1,576 Added More 364 $ 2 $ 10
Prospera Financial Services Inc 2016-09-30 20,405 Added More 200 $ 1 $ 131
Mosaic Family Wealth Llc 2016-09-30 120 New Holding 120 $ 0 $ 0
American International Group Inc 2016-09-30 63,449 Added More 97 $ 0 $ 408
Ativo Capital Management Llc 2016-09-30 131,134 Added More 1 $ 0 $ 844
Wealthtrust-Arizona Llc 2016-09-30 10 No Change 0 $ 0 $ 0
Highlander Capital Management Llc 2016-09-30 24,250 No Change 0 $ 0 $ 156
Nationwide Fund Advisors 2016-09-30 71,670 No Change 0 $ 0 $ 461
Swiss National Bank 2016-09-30 172,920 No Change 0 $ 0 $ 1,113
New York State Common Retirement Fund 2016-09-30 99,900 No Change 0 $ 0 $ 643
Investors Asset Management Of Georgia Inc Ga Adv 2016-09-30 25,000 No Change 0 $ 0 $ 161
Earnest Partners Llc 2016-09-30 1,300 No Change 0 $ 0 $ 8
Jacobi Capital Management Llc 2016-09-30 5,800 No Change 0 $ 0 $ 37
Wealthtrust Axiom Llc 2016-09-30 52,180 No Change 0 $ 0 $ 336
Zurcher Kantonalbank Zurich Cantonalbank 2016-09-30 5,900 No Change 0 $ 0 $ 37
Key Colony Management Llc 2016-09-30 179,000 No Change 0 $ 0 $ 1,152
Central Trust Co 2016-09-30 100 No Change 0 $ 0 $ 0
Legal General Group Plc 2016-09-30 15,488 No Change 0 $ 0 $ 99
Pnc Financial Services Group Inc 2016-09-30 0 Sold All -500 $ -3 $ 0
Cutler Group Lp 2016-09-30 22,596 Sold Some -618 $ -3 $ 145
Denver Investment Advisors Llc 2016-09-30 12,086 Sold Some -868 $ -5 $ 77
Tower Research Capital Llc Trc 2016-09-30 1,171 Sold Some -1,080 $ -6 $ 7
Strs Ohio 2016-09-30 34,100 Sold Some -1,300 $ -8 $ 219
Gradient Investments Llc 2016-09-30 0 Sold All -1,706 $ -10 $ 0
Proshare Advisors Llc 2016-09-30 10,866 Sold Some -2,595 $ -16 $ 69
Sheaff Brock Investment Advisors Llc 2016-09-30 34,928 Sold Some -2,600 $ -16 $ 224
Advisor Group Inc 2016-09-30 653 Sold Some -3,000 $ -19 $ 4
Commonwealth Equity Services Inc 2016-09-30 22,586 Sold Some -3,475 $ -22 $ 145
Teacher Retirement System Of Texas 2016-09-30 11,654 Sold Some -3,568 $ -22 $ 75
Pennsylvania Trust Co 2016-09-30 10,000 Sold Some -4,517 $ -29 $ 64
Cetera Advisors Llc 2016-09-30 31,447 Sold Some -6,500 $ -41 $ 202
Virtu Financial Llc 2016-09-30 0 Sold All -10,482 $ -67 $ 0
Wedbush Securities Inc 2016-09-30 0 Sold All -12,200 $ -78 $ 0
Barings Llc 2016-09-30 0 Sold All -13,500 $ -86 $ 0
Guggenheim Capital Llc 2016-09-30 74,508 Sold Some -15,767 $ -101 $ 479
Allegis Investment Advisors Llc 2016-09-30 61,399 Sold Some -17,325 $ -111 $ 395
Two Sigma Securities Llc 2016-09-30 0 Sold All -18,103 $ -116 $ 0
Kcg Holdings Inc 2016-09-30 15,749 Sold Some -61,431 $ -395 $ 101
Peak6 Investments L P 2016-09-30 0 Sold All -67,300 $ -433 $ 0
Stifel Financial Corp 2016-09-30 0 Sold All -75,497 $ -486 $ 0
Clarivest Asset Management Llc 2016-09-30 0 Sold All -107,300 $ -691 $ 0
Emerald Acquisition Ltd 2016-09-30 53,617 Sold Some -108,739 $ -700 $ 345
Advisors Asset Management Inc 2016-09-30 714,509 Sold Some -196,760 $ -1,267 $ 4,601